createdAt,value
2017-10-25T00:01:05.196Z,7.17
2017-10-25T00:03:35.141Z,5.93
2017-10-25T00:06:05.236Z,4.50
2017-10-25T00:08:35.209Z,4.97
2017-10-25T00:11:05.286Z,4.13
2017-10-25T00:13:35.340Z,4.60
2017-10-25T00:16:05.249Z,3.90
2017-10-25T00:18:35.262Z,7.97
2017-10-25T00:21:05.294Z,8.53
2017-10-25T00:23:35.326Z,4.10
2017-10-25T00:26:05.363Z,5.30
2017-10-25T00:28:35.327Z,6.57
2017-10-25T00:31:05.441Z,5.47
2017-10-25T00:33:35.540Z,6.40
2017-10-25T00:36:05.409Z,3.73
2017-10-25T00:38:35.523Z,9.57
2017-10-25T00:41:05.509Z,4.67
2017-10-25T00:43:35.454Z,5.53
2017-10-25T00:46:05.636Z,4.70
2017-10-25T00:48:35.581Z,4.67
2017-10-25T00:51:05.600Z,6.77
2017-10-25T00:53:37.591Z,5.20
2017-10-25T00:56:07.197Z,5.50
2017-10-25T00:58:36.787Z,6.17
2017-10-25T01:01:07.412Z,4.60
2017-10-25T01:03:37.059Z,4.13
2017-10-25T01:06:08.313Z,7.07
2017-10-25T01:08:37.949Z,3.70
2017-10-25T01:11:07.560Z,5.90
2017-10-25T01:13:37.099Z,5.63
2017-10-25T01:16:06.812Z,4.50
2017-10-25T01:18:37.678Z,7.67
2017-10-25T01:21:07.237Z,8.10
2017-10-25T01:23:36.793Z,4.57
2017-10-25T01:26:06.823Z,3.87
2017-10-25T01:28:36.733Z,4.50
2017-10-25T01:31:06.619Z,5.17
2017-10-25T01:33:36.656Z,4.67
2017-10-25T01:36:06.803Z,6.30
2017-10-25T01:38:36.825Z,4.57
2017-10-25T01:41:06.834Z,4.30
2017-10-25T01:43:37.075Z,4.20
2017-10-25T01:46:06.774Z,4.50
2017-10-25T01:48:36.914Z,4.87
2017-10-25T01:51:06.812Z,4.53
2017-10-25T01:53:36.777Z,4.50
2017-10-25T01:56:07.129Z,4.47
2017-10-25T01:58:36.940Z,4.60
2017-10-25T02:01:06.929Z,6.57
2017-10-25T02:03:36.973Z,5.57
2017-10-25T02:06:06.956Z,3.97
2017-10-25T02:08:36.998Z,6.57
2017-10-25T02:11:06.994Z,3.70
2017-10-25T02:13:37.006Z,4.10
2017-10-25T02:16:07.103Z,4.07
2017-10-25T02:18:37.021Z,4.60
2017-10-25T02:21:07.119Z,5.20
2017-10-25T02:23:37.105Z,5.63
2017-10-25T02:26:07.198Z,3.80
2017-10-25T02:28:38.620Z,5.70
2017-10-25T02:31:08.266Z,4.40
2017-10-25T02:33:37.785Z,4.73
2017-10-25T02:36:07.327Z,5.97
2017-10-25T02:38:37.205Z,4.53
2017-10-25T02:41:07.202Z,4.47
2017-10-25T02:43:37.253Z,4.23
2017-10-25T02:46:07.332Z,5.00
2017-10-25T02:48:37.231Z,5.63
2017-10-25T02:51:07.288Z,4.20
2017-10-25T02:53:37.313Z,6.60
2017-10-25T02:56:07.303Z,6.27
2017-10-25T02:58:37.456Z,5.30
2017-10-25T03:01:07.426Z,5.40
2017-10-25T03:03:37.586Z,6.50
2017-10-25T03:06:07.504Z,5.47
2017-10-25T03:08:37.503Z,6.97
2017-10-25T03:11:07.558Z,4.57
2017-10-25T03:13:37.581Z,4.73
2017-10-25T03:16:07.596Z,6.10
2017-10-25T03:18:37.679Z,4.80
2017-10-25T03:21:07.602Z,4.43
2017-10-25T03:23:37.718Z,4.13
2017-10-25T03:26:07.725Z,4.53
2017-10-25T03:28:39.733Z,4.97
2017-10-25T03:31:09.335Z,5.60
2017-10-25T03:33:38.955Z,4.17
2017-10-25T03:36:08.502Z,5.87
2017-10-25T03:38:38.033Z,8.00
2017-10-25T03:41:07.898Z,4.90
2017-10-25T03:43:37.760Z,3.80
2017-10-25T03:46:07.767Z,6.37
2017-10-25T03:48:37.783Z,4.40
2017-10-25T03:51:07.791Z,5.97
2017-10-25T03:53:37.833Z,7.23
2017-10-25T03:56:07.830Z,4.90
2017-10-25T03:58:37.840Z,5.53
2017-10-25T04:01:07.977Z,4.80
2017-10-25T04:03:38.022Z,5.30
2017-10-25T04:06:08.015Z,4.87
2017-10-25T04:08:38.842Z,6.77
2017-10-25T04:11:08.409Z,7.70
2017-10-25T04:13:38.173Z,6.20
2017-10-25T04:16:08.376Z,5.67
2017-10-25T04:18:38.224Z,7.40
2017-10-25T04:21:08.238Z,7.77
2017-10-25T04:23:38.353Z,11.77
2017-10-25T04:26:08.354Z,9.63
2017-10-25T04:28:38.281Z,9.53
2017-10-25T04:31:08.508Z,7.63
2017-10-25T04:33:38.421Z,8.50
2017-10-25T04:36:08.474Z,8.70
2017-10-25T04:38:38.624Z,8.57
2017-10-25T04:41:08.478Z,8.80
2017-10-25T04:43:38.486Z,8.90
2017-10-25T04:46:08.521Z,8.93
2017-10-25T04:48:38.530Z,8.60
2017-10-25T04:51:08.524Z,10.10
2017-10-25T04:53:38.671Z,9.63
2017-10-25T04:56:08.719Z,8.87
2017-10-25T04:58:38.702Z,9.50
2017-10-25T05:01:08.737Z,8.80
2017-10-25T05:03:38.762Z,9.27
2017-10-25T05:06:08.829Z,8.10
2017-10-25T05:08:38.755Z,11.13
2017-10-25T05:11:08.786Z,8.07
2017-10-25T05:13:38.905Z,12.13
2017-10-25T05:16:08.958Z,7.10
2017-10-25T05:18:38.922Z,6.43
2017-10-25T05:21:09.223Z,7.60
2017-10-25T05:23:39.328Z,9.33
2017-10-25T05:26:09.297Z,7.77
2017-10-25T05:28:39.132Z,10.63
2017-10-25T05:31:09.658Z,8.77
2017-10-25T05:33:39.228Z,7.90
2017-10-25T05:36:09.317Z,6.63
2017-10-25T05:38:39.200Z,13.50
2017-10-25T05:41:09.173Z,8.63
2017-10-25T05:43:39.469Z,7.47
2017-10-25T05:46:09.465Z,12.93
2017-10-25T05:48:39.439Z,8.00
2017-10-25T05:51:09.512Z,9.90
2017-10-25T05:53:39.477Z,10.20
2017-10-25T05:56:09.422Z,11.40
2017-10-25T05:58:39.437Z,13.67
2017-10-25T06:01:11.173Z,10.07
2017-10-25T06:03:40.730Z,7.40
2017-10-25T06:06:10.349Z,9.00
2017-10-25T06:08:39.903Z,7.00
2017-10-25T06:11:09.585Z,7.27
2017-10-25T06:13:39.620Z,9.47
2017-10-25T06:16:09.657Z,12.93
2017-10-25T06:18:39.662Z,7.67
2017-10-25T06:21:09.680Z,9.47
2017-10-25T06:23:39.677Z,11.67
2017-10-25T06:26:09.707Z,8.60
2017-10-25T06:28:39.723Z,7.90
2017-10-25T06:31:09.848Z,9.23
2017-10-25T06:33:39.765Z,9.00
2017-10-25T06:36:09.802Z,10.50
2017-10-25T06:38:39.919Z,10.97
2017-10-25T06:41:09.938Z,8.13
2017-10-25T06:43:40.059Z,8.10
2017-10-25T06:46:09.987Z,7.17
2017-10-25T06:48:40.100Z,11.07
2017-10-25T06:51:10.156Z,8.53
2017-10-25T06:53:39.987Z,10.60
2017-10-25T06:56:10.042Z,7.33
2017-10-25T06:58:40.159Z,8.27
2017-10-25T07:01:10.280Z,9.87
2017-10-25T07:03:40.213Z,10.13
2017-10-25T07:06:10.191Z,8.63
2017-10-25T07:08:40.272Z,9.33
2017-10-25T07:11:10.438Z,9.50
2017-10-25T07:13:40.281Z,8.30
2017-10-25T07:16:10.473Z,8.30
2017-10-25T07:18:40.423Z,8.13
2017-10-25T07:21:10.402Z,8.50
2017-10-25T07:23:40.415Z,6.63
2017-10-25T07:26:10.435Z,8.10
2017-10-25T07:28:40.506Z,8.67
2017-10-25T07:31:10.530Z,13.80
2017-10-25T07:33:40.493Z,9.40
2017-10-25T07:36:10.609Z,10.83
2017-10-25T07:38:41.419Z,11.63
2017-10-25T07:41:11.915Z,15.83
2017-10-25T07:43:41.636Z,9.77
2017-10-25T07:46:11.208Z,7.00
2017-10-25T07:48:40.799Z,8.17
2017-10-25T07:51:10.811Z,10.47
2017-10-25T07:53:40.925Z,8.33
2017-10-25T07:56:10.874Z,10.47
2017-10-25T07:58:40.778Z,7.63
2017-10-25T08:01:10.787Z,7.73
2017-10-25T08:03:41.179Z,8.93
2017-10-25T08:06:10.919Z,10.57
2017-10-25T08:08:41.024Z,6.83
2017-10-25T08:11:11.010Z,11.70
2017-10-25T08:13:41.098Z,8.53
2017-10-25T08:16:11.077Z,8.53
2017-10-25T08:18:41.100Z,5.23
2017-10-25T08:21:11.123Z,9.57
2017-10-25T08:23:41.190Z,9.17
2017-10-25T08:26:11.187Z,8.53
2017-10-25T08:28:41.192Z,11.13
2017-10-25T08:31:11.208Z,10.70
2017-10-25T08:33:41.262Z,10.10
2017-10-25T08:36:11.351Z,5.03
2017-10-25T08:38:41.400Z,13.03
2017-10-25T08:41:11.377Z,7.43
2017-10-25T08:43:41.603Z,10.13
2017-10-25T08:46:11.617Z,4.90
2017-10-25T08:48:41.603Z,14.57
2017-10-25T08:51:11.621Z,6.10
2017-10-25T08:53:41.594Z,6.47
2017-10-25T08:56:11.629Z,10.27
2017-10-25T08:58:41.570Z,9.13
2017-10-25T09:01:11.653Z,7.67
2017-10-25T09:03:41.765Z,5.97
2017-10-25T09:06:12.902Z,4.37
2017-10-25T09:08:42.487Z,5.93
2017-10-25T09:11:12.265Z,8.53
2017-10-25T09:13:41.838Z,7.10
2017-10-25T09:16:12.199Z,4.77
2017-10-25T09:18:41.876Z,5.90
2017-10-25T09:21:11.851Z,5.50
2017-10-25T09:23:41.970Z,5.47
2017-10-25T09:26:12.122Z,4.83
2017-10-25T09:28:42.483Z,6.10
2017-10-25T09:31:12.031Z,5.40
2017-10-25T09:33:42.043Z,5.60
2017-10-25T09:36:12.194Z,6.90
2017-10-25T09:38:42.190Z,5.63
2017-10-25T09:41:12.126Z,7.83
2017-10-25T09:43:42.073Z,7.53
2017-10-25T09:46:12.146Z,8.97
2017-10-25T09:48:42.151Z,4.10
2017-10-25T09:51:12.194Z,5.80
2017-10-25T09:53:42.206Z,9.03
2017-10-25T09:56:12.193Z,6.70
2017-10-25T09:58:42.272Z,5.33
2017-10-25T10:01:12.256Z,13.37
2017-10-25T10:03:42.349Z,6.90
2017-10-25T10:06:12.410Z,5.43
2017-10-25T10:08:42.507Z,11.47
2017-10-25T10:11:12.426Z,10.37
2017-10-25T10:13:42.482Z,12.27
2017-10-25T10:16:12.543Z,8.43
2017-10-25T10:18:42.484Z,9.83
2017-10-25T10:21:12.569Z,5.80
2017-10-25T10:23:42.529Z,8.43
2017-10-25T10:26:12.539Z,11.73
2017-10-25T10:28:42.653Z,8.60
2017-10-25T10:31:12.645Z,7.13
2017-10-25T10:33:42.681Z,6.03
2017-10-25T10:36:12.680Z,4.90
2017-10-25T10:38:42.715Z,8.40
2017-10-25T10:41:12.761Z,10.23
2017-10-25T10:43:42.711Z,5.30
2017-10-25T10:46:18.623Z,5.00
2017-10-25T10:48:48.145Z,5.53
2017-10-25T10:51:17.880Z,8.13
2017-10-25T10:53:47.885Z,6.17
2017-10-25T10:56:17.891Z,7.17
2017-10-25T10:58:47.914Z,10.40
2017-10-25T11:01:18.001Z,6.30
2017-10-25T11:03:48.042Z,6.17
2017-10-25T11:06:18.078Z,5.17
2017-10-25T11:08:47.988Z,7.03
2017-10-25T11:11:18.011Z,5.73
2017-10-25T11:13:48.127Z,6.87
2017-10-25T11:16:18.176Z,9.00
2017-10-25T11:18:48.158Z,6.47
2017-10-25T11:21:18.210Z,3.83
2017-10-25T11:23:48.341Z,7.67
2017-10-25T11:26:18.314Z,6.70
2017-10-25T11:28:48.330Z,7.10
2017-10-25T11:31:18.360Z,5.17
2017-10-25T11:33:48.447Z,4.40
2017-10-25T11:36:18.433Z,7.67
2017-10-25T11:38:48.273Z,5.13
2017-10-25T11:41:18.346Z,5.57
2017-10-25T11:43:48.525Z,4.23
2017-10-25T11:46:18.496Z,3.40
2017-10-25T11:48:48.483Z,4.53
2017-10-25T11:51:18.462Z,3.33
2017-10-25T11:53:48.519Z,4.80
2017-10-25T11:56:18.614Z,6.50
2017-10-25T11:58:48.531Z,6.07
2017-10-25T12:01:18.667Z,7.70
2017-10-25T12:03:48.463Z,2.40
2017-10-25T12:06:18.450Z,2.73
2017-10-25T12:08:48.021Z,4.07
2017-10-25T12:11:17.569Z,3.90
2017-10-25T12:13:47.105Z,5.33
2017-10-25T12:16:16.636Z,6.17
2017-10-25T12:18:46.200Z,3.43
2017-10-25T12:21:15.734Z,3.77
2017-10-25T12:23:45.269Z,3.60
2017-10-25T12:26:14.869Z,4.43
2017-10-25T12:28:44.927Z,4.97
2017-10-25T12:31:15.006Z,22.77
2017-10-25T12:33:44.947Z,12.60
2017-10-25T12:36:15.061Z,3.47
2017-10-25T12:38:45.071Z,6.10
2017-10-25T12:41:15.238Z,4.07
2017-10-25T12:43:45.101Z,4.93
2017-10-25T12:46:15.215Z,4.10
2017-10-25T12:48:45.215Z,6.43
2017-10-25T12:51:15.545Z,5.80
2017-10-25T12:53:45.209Z,3.50
2017-10-25T12:56:15.229Z,2.17
2017-10-25T12:58:45.336Z,8.67
2017-10-25T13:01:15.388Z,5.97
2017-10-25T13:03:45.395Z,6.87
2017-10-25T13:06:15.389Z,8.27
2017-10-25T13:08:45.343Z,7.43
2017-10-25T13:11:26.425Z,14.33
2017-10-25T13:14:05.517Z,27.67
2017-10-25T13:17:00.000Z,4.27
2017-10-25T13:19:29.702Z,7.83
2017-10-25T13:21:59.737Z,6.20
2017-10-25T13:24:29.766Z,4.20
2017-10-25T13:26:59.802Z,7.07
2017-10-25T13:29:29.838Z,4.20
2017-10-25T13:31:59.936Z,5.87
2017-10-25T13:34:29.813Z,8.87
2017-10-25T13:36:59.858Z,2.97
2017-10-25T13:39:29.871Z,6.57
2017-10-25T13:41:59.988Z,6.07
2017-10-25T13:44:29.976Z,2.90
2017-10-25T13:47:00.038Z,6.63
2017-10-25T13:49:30.111Z,5.80
2017-10-25T13:52:00.119Z,7.97
2017-10-25T13:54:30.143Z,7.00
2017-10-25T13:57:00.160Z,4.17
2017-10-25T13:59:30.178Z,3.53
2017-10-25T14:02:00.304Z,6.07
2017-10-25T14:04:30.207Z,12.57
2017-10-25T14:07:00.334Z,32.23
2017-10-25T14:09:30.264Z,20.67
2017-10-25T14:12:00.281Z,13.77
2017-10-25T14:14:30.287Z,23.13
2017-10-25T14:17:00.411Z,27.57
2017-10-25T14:19:30.422Z,31.27
2017-10-25T14:22:00.445Z,23.83
2017-10-25T14:24:30.462Z,25.23
2017-10-25T14:27:05.938Z,11.07
2017-10-25T14:29:36.065Z,18.33
2017-10-25T14:32:05.943Z,16.83
2017-10-25T14:34:36.410Z,16.37
2017-10-25T14:37:06.427Z,10.47
2017-10-25T14:39:36.435Z,9.07
2017-10-25T14:42:06.465Z,11.03
2017-10-25T14:44:36.550Z,7.37
2017-10-25T14:47:06.507Z,8.97
2017-10-25T14:49:36.625Z,8.73
2017-10-25T14:52:06.624Z,12.10
2017-10-25T14:54:36.624Z,6.70
2017-10-25T14:57:06.578Z,9.10
2017-10-25T14:59:36.663Z,8.13
2017-10-25T15:02:06.615Z,6.60
2017-10-25T15:04:36.427Z,13.83
2017-10-25T15:07:06.306Z,7.97
2017-10-25T15:09:36.363Z,9.17
2017-10-25T15:12:06.697Z,7.23
2017-10-25T15:14:36.473Z,8.50
2017-10-25T15:17:06.478Z,14.23
2017-10-25T15:19:36.391Z,5.00
2017-10-25T15:22:06.445Z,6.23
2017-10-25T15:24:36.434Z,6.10
2017-10-25T15:27:06.188Z,7.53
2017-10-25T15:29:36.156Z,10.63
2017-10-25T15:32:06.167Z,11.57
2017-10-25T15:34:36.177Z,13.80
2017-10-25T15:37:06.202Z,23.20
2017-10-25T15:39:36.313Z,16.87
2017-10-25T15:42:06.215Z,13.57
2017-10-25T15:44:36.344Z,16.27
2017-10-25T15:47:06.439Z,19.77
2017-10-25T15:49:36.299Z,12.00
2017-10-25T15:52:06.367Z,12.90
2017-10-25T15:54:36.417Z,10.87
2017-10-25T15:57:06.432Z,7.23
2017-10-25T15:59:36.473Z,8.77
2017-10-25T16:02:06.470Z,15.70
2017-10-25T16:04:36.594Z,9.27
2017-10-25T16:07:06.678Z,6.03
2017-10-25T16:09:37.112Z,10.97
2017-10-25T16:12:07.097Z,6.70
2017-10-25T16:14:37.214Z,6.57
2017-10-25T16:17:07.084Z,5.40
2017-10-25T16:19:36.691Z,7.00
2017-10-25T16:22:06.859Z,10.80
2017-10-25T16:24:36.771Z,10.00
2017-10-25T16:27:06.850Z,4.80
2017-10-25T16:29:36.884Z,6.87
2017-10-25T16:32:06.953Z,10.47
2017-10-25T16:34:36.901Z,9.50
2017-10-25T16:37:06.910Z,10.73
2017-10-25T16:39:36.930Z,14.43
2017-10-25T16:42:06.985Z,11.43
2017-10-25T16:44:36.969Z,10.13
2017-10-25T16:47:07.115Z,10.47
2017-10-25T16:49:37.073Z,8.90
2017-10-25T16:52:07.091Z,8.70
2017-10-25T16:54:37.146Z,10.47
2017-10-25T16:57:07.161Z,10.73
2017-10-25T16:59:37.177Z,15.13
2017-10-25T17:02:07.345Z,11.70
2017-10-25T17:04:37.213Z,13.90
2017-10-25T17:07:07.245Z,10.33
2017-10-25T17:09:37.217Z,12.63
2017-10-25T17:12:07.248Z,12.43
2017-10-25T17:14:37.283Z,12.53
2017-10-25T17:17:07.197Z,12.63
2017-10-25T17:19:37.234Z,10.03
2017-10-25T17:22:06.826Z,10.83
2017-10-25T17:24:36.356Z,14.77
2017-10-25T17:27:05.925Z,17.90
2017-10-25T17:29:35.738Z,13.83
2017-10-25T17:32:05.297Z,11.60
2017-10-25T17:34:34.936Z,9.57
2017-10-25T17:37:04.470Z,11.73
2017-10-25T17:39:33.995Z,8.03
2017-10-25T17:42:03.619Z,10.80
2017-10-25T17:44:33.525Z,15.77
2017-10-25T17:47:03.539Z,12.97
2017-10-25T17:49:33.566Z,15.10
2017-10-25T17:52:03.761Z,12.83
2017-10-25T17:54:33.722Z,9.00
2017-10-25T17:57:03.719Z,12.43
2017-10-25T17:59:33.681Z,10.83
2017-10-25T18:02:05.193Z,12.80
2017-10-25T18:04:34.770Z,10.80
2017-10-25T18:07:04.360Z,11.00
2017-10-25T18:09:33.922Z,15.13
2017-10-25T18:12:03.840Z,15.97
2017-10-25T18:14:33.873Z,16.73
2017-10-25T18:17:07.064Z,13.03
2017-10-25T18:19:36.672Z,17.40
2017-10-25T18:22:06.322Z,17.97
2017-10-25T18:24:36.160Z,23.90
2017-10-25T18:27:05.751Z,15.70
2017-10-25T18:29:35.321Z,12.33
2017-10-25T18:32:04.877Z,10.03
2017-10-25T18:34:34.417Z,7.97
2017-10-25T18:37:04.106Z,10.00
2017-10-25T18:39:34.192Z,15.47
2017-10-25T18:42:04.151Z,14.10
2017-10-25T18:44:34.365Z,11.40
2017-10-25T18:47:04.937Z,9.10
2017-10-25T18:49:34.542Z,11.70
2017-10-25T18:52:07.634Z,10.03
2017-10-25T18:54:38.961Z,9.17
2017-10-25T18:57:11.504Z,8.80
2017-10-25T18:59:43.002Z,8.83
2017-10-25T19:02:14.355Z,12.93
2017-10-25T19:04:46.331Z,11.40
2017-10-25T19:07:17.591Z,8.70
2017-10-25T19:09:49.074Z,10.33
2017-10-25T19:12:19.732Z,9.03
2017-10-25T19:14:50.598Z,10.20
2017-10-25T19:17:21.064Z,16.03
2017-10-25T19:19:51.491Z,11.33
2017-10-25T19:22:22.529Z,11.80
2017-10-25T19:24:53.075Z,11.80
2017-10-25T19:27:23.384Z,13.40
2017-10-25T19:29:54.385Z,9.20
2017-10-25T19:32:26.060Z,9.57
2017-10-25T19:34:57.525Z,8.57
2017-10-25T19:37:28.910Z,7.20
2017-10-25T19:40:00.407Z,9.40
2017-10-25T19:42:32.671Z,10.77
2017-10-25T19:45:03.625Z,8.50
2017-10-25T19:47:34.516Z,11.00
2017-10-25T19:50:05.363Z,10.50
2017-10-25T19:52:35.558Z,13.17
2017-10-25T19:55:05.725Z,9.07
2017-10-25T19:57:35.744Z,11.20
2017-10-25T20:00:05.619Z,10.60
2017-10-25T20:02:35.881Z,10.23
2017-10-25T20:05:05.787Z,9.60
2017-10-25T20:07:35.601Z,9.40
2017-10-25T20:10:06.814Z,11.97
2017-10-25T20:12:36.436Z,12.90
2017-10-25T20:15:06.054Z,10.07
2017-10-25T20:17:35.578Z,9.07
2017-10-25T20:20:06.100Z,11.93
2017-10-25T20:22:35.674Z,10.87
2017-10-25T20:25:05.722Z,11.10
2017-10-25T20:27:35.506Z,9.63
2017-10-25T20:30:06.023Z,13.67
2017-10-25T20:32:36.409Z,10.37
2017-10-25T20:35:05.952Z,7.93
2017-10-25T20:37:35.661Z,7.40
2017-10-25T20:40:06.668Z,8.47
2017-10-25T20:42:36.243Z,8.43
2017-10-25T20:45:05.778Z,8.03
2017-10-25T20:47:35.763Z,8.27
2017-10-25T20:50:10.160Z,10.87
2017-10-25T20:52:40.437Z,11.00
2017-10-25T20:55:13.492Z,13.00
2017-10-25T20:57:43.273Z,22.10
2017-10-25T21:00:13.920Z,9.17
2017-10-25T21:02:43.520Z,10.17
2017-10-25T21:05:23.106Z,10.73
2017-10-25T21:07:52.918Z,12.70
2017-10-25T21:10:22.529Z,13.23
2017-10-25T21:12:52.078Z,9.03
2017-10-25T21:15:21.661Z,9.17
2017-10-25T21:17:51.246Z,10.47
2017-10-25T21:20:21.217Z,10.87
2017-10-25T21:22:51.324Z,10.33
2017-10-25T21:25:21.388Z,13.03
2017-10-25T21:27:53.422Z,10.30
2017-10-25T21:30:22.963Z,9.43
2017-10-25T21:32:52.490Z,8.30
2017-10-25T21:35:22.293Z,9.53
2017-10-25T21:37:51.827Z,9.67
2017-10-25T21:40:21.439Z,9.10
2017-10-25T21:42:51.529Z,9.20
2017-10-25T21:45:21.172Z,7.90
2017-10-25T21:47:50.723Z,7.80
2017-10-25T21:50:20.542Z,9.30
2017-10-25T21:52:50.478Z,7.70
2017-10-25T21:55:20.613Z,11.33
2017-10-25T21:57:50.592Z,9.47
2017-10-25T22:00:20.634Z,10.93
2017-10-25T22:02:50.541Z,8.20
2017-10-25T22:05:20.585Z,11.10
2017-10-25T22:07:50.636Z,11.80
2017-10-25T22:10:20.724Z,14.93
2017-10-25T22:12:50.687Z,16.37
2017-10-25T22:15:21.423Z,15.50
2017-10-25T22:17:51.018Z,12.07
2017-10-25T22:20:20.782Z,18.00
2017-10-25T22:22:50.836Z,15.10
2017-10-25T22:25:20.901Z,18.13
2017-10-25T22:27:50.810Z,15.37
2017-10-25T22:30:20.935Z,17.53
2017-10-25T22:32:50.964Z,15.83
2017-10-25T22:35:21.006Z,16.93
2017-10-25T22:37:51.098Z,14.37
2017-10-25T22:40:21.013Z,17.27
2017-10-25T22:42:51.009Z,12.80
2017-10-25T22:45:21.044Z,13.47
2017-10-25T22:47:51.180Z,14.33
2017-10-25T22:50:21.190Z,15.23
2017-10-25T22:52:51.111Z,14.63
2017-10-25T22:55:21.090Z,14.20
2017-10-25T22:57:51.114Z,13.30
2017-10-25T23:00:21.262Z,12.97
2017-10-25T23:02:51.187Z,17.63
2017-10-25T23:05:20.778Z,12.03
2017-10-25T23:07:50.320Z,11.90
2017-10-25T23:10:19.877Z,17.97
2017-10-25T23:12:49.495Z,14.23
2017-10-25T23:15:19.023Z,13.87
2017-10-25T23:17:49.095Z,16.50
2017-10-25T23:20:19.090Z,17.53
2017-10-25T23:22:49.109Z,13.40
2017-10-25T23:25:19.234Z,15.17
2017-10-25T23:27:49.144Z,14.20
2017-10-25T23:30:19.290Z,15.10
2017-10-25T23:32:49.285Z,11.63
2017-10-25T23:35:19.222Z,19.07
2017-10-25T23:37:49.347Z,13.77
2017-10-25T23:40:19.362Z,14.43
2017-10-25T23:42:49.727Z,15.83
2017-10-25T23:45:20.043Z,16.40
2017-10-25T23:47:49.624Z,17.10
2017-10-25T23:50:19.541Z,15.67
2017-10-25T23:52:49.469Z,14.17
2017-10-25T23:55:19.574Z,16.73
2017-10-25T23:57:49.557Z,14.80
